Time;durP1;ratioP1;P1;durP2;ratioP2;P2;SDS_P1;SDS_P2;PMS_P1;PMS_P2;Temp;Humidity;BMP_temperature;BMP_pressure;BME280_temperature;BME280_humidity;BME280_pressure;Samples;Min_cycle;Max_cycle;Signal;HPM_P1;HPM_P2
2023/04/06 00:00:23;;;;;;;1.77;1.60;;;21.30;64.60;;;;;;5016508;28;20985;-87
2023/04/06 00:02:52;;;;;;;2.00;1.70;;;21.30;64.70;;;;;;5016333;28;20558;-87
2023/04/06 00:05:20;;;;;;;2.70;1.80;;;21.30;64.70;;;;;;5016627;28;20810;-86
2023/04/06 00:07:46;;;;;;;2.27;2.07;;;21.20;64.70;;;;;;5016826;28;20474;-86
2023/04/06 00:10:13;;;;;;;1.70;1.60;;;21.20;64.50;;;;;;5016641;28;20448;-87
2023/04/06 00:12:40;;;;;;;2.27;1.50;;;21.20;64.60;;;;;;5016310;28;20530;-87
2023/04/06 00:15:08;;;;;;;1.90;1.60;;;21.20;64.50;;;;;;5016042;28;20447;-86
2023/04/06 00:17:35;;;;;;;1.87;1.77;;;21.20;64.60;;;;;;5016226;28;20526;-87
2023/04/06 00:20:04;;;;;;;2.00;1.90;;;21.20;64.40;;;;;;5016057;28;20438;-87
2023/04/06 00:22:31;;;;;;;2.27;1.93;;;21.20;64.30;;;;;;5015985;28;20538;-87
2023/04/06 00:24:57;;;;;;;1.93;1.77;;;21.20;64.30;;;;;;5016079;28;21009;-87
2023/04/06 00:27:24;;;;;;;2.67;1.70;;;21.20;64.20;;;;;;5016149;28;21025;-87
2023/04/06 00:29:51;;;;;;;2.00;1.90;;;21.20;64.30;;;;;;5016161;28;20522;-87
2023/04/06 00:32:18;;;;;;;2.17;1.97;;;21.10;64.10;;;;;;5015802;28;20444;-87
2023/04/06 00:34:45;;;;;;;1.90;1.80;;;21.10;64.30;;;;;;5016198;28;20526;-87
2023/04/06 00:37:13;;;;;;;2.07;1.87;;;21.10;64.40;;;;;;5015886;28;20446;-87
2023/04/06 00:39:40;;;;;;;2.13;1.93;;;21.10;64.50;;;;;;5015798;28;20527;-87
2023/04/06 00:42:12;;;;;;;2.23;2.07;;;21.10;64.40;;;;;;5015709;28;20542;-87
2023/04/06 00:44:39;;;;;;;2.13;1.93;;;21.10;64.40;;;;;;5015851;28;20809;-87
2023/04/06 00:47:06;;;;;;;1.63;1.53;;;21.10;64.50;;;;;;5015312;28;20514;-87
2023/04/06 00:49:33;;;;;;;2.00;1.80;;;21.10;64.40;;;;;;5015722;28;20968;-87
2023/04/06 00:52:00;;;;;;;2.57;2.37;;;21.10;64.60;;;;;;5015419;28;20448;-87
2023/04/06 00:54:30;;;;;;;1.57;1.47;;;21.10;64.40;;;;;;5015565;28;20490;-87
2023/04/06 00:56:57;;;;;;;2.00;1.80;;;21.10;64.30;;;;;;5015923;28;20438;-87
2023/04/06 00:59:24;;;;;;;5.83;1.90;;;21.10;64.50;;;;;;5015647;28;20535;-86
2023/04/06 01:01:51;;;;;;;1.87;1.77;;;21.10;64.60;;;;;;5015205;28;20450;-86
2023/04/06 01:04:18;;;;;;;2.40;1.90;;;21.10;64.50;;;;;;5015604;28;20467;-87
2023/04/06 01:06:46;;;;;;;2.57;1.87;;;21.10;64.50;;;;;;5015345;28;21063;-87
2023/04/06 01:09:12;;;;;;;2.03;1.83;;;21.10;64.70;;;;;;5015314;28;20841;-87
2023/04/06 01:11:41;;;;;;;2.17;2.03;;;21.10;64.50;;;;;;5015460;28;20542;-87
2023/04/06 01:14:08;;;;;;;1.93;1.80;;;21.10;64.70;;;;;;5015472;28;20627;-87
2023/04/06 01:16:35;;;;;;;2.77;2.27;;;21.10;64.60;;;;;;5015120;28;20479;-87
2023/04/06 01:19:02;;;;;;;3.43;2.37;;;21.10;64.70;;;;;;5014952;28;21021;-87
2023/04/06 01:21:29;;;;;;;1.90;1.80;;;21.10;64.70;;;;;;5015249;28;20514;-87
2023/04/06 01:23:58;;;;;;;2.27;2.03;;;21.10;64.80;;;;;;5014757;28;20986;-87
2023/04/06 01:26:25;;;;;;;2.13;1.70;;;21.10;64.60;;;;;;5015119;28;20529;-87
2023/04/06 01:28:51;;;;;;;2.13;1.93;;;21.00;64.60;;;;;;5014791;28;20956;-87
2023/04/06 01:31:18;;;;;;;2.40;2.20;;;21.00;65.30;;;;;;5014889;28;20977;-87
2023/04/06 01:33:46;;;;;;;2.40;2.20;;;21.00;64.50;;;;;;5014651;28;20478;-87
2023/04/06 01:36:13;;;;;;;2.50;1.90;;;21.10;64.70;;;;;;5014966;28;20451;-87
2023/04/06 01:38:41;;;;;;;1.80;1.67;;;21.00;64.70;;;;;;5014797;28;20443;-87
2023/04/06 01:41:09;;;;;;;2.17;1.97;;;21.00;64.50;;;;;;5014873;28;20448;-87
2023/04/06 01:43:36;;;;;;;2.17;2.00;;;21.00;64.70;;;;;;5014881;28;20844;-87
2023/04/06 01:46:03;;;;;;;2.57;2.07;;;21.00;64.60;;;;;;5014771;28;20582;-87
2023/04/06 01:48:30;;;;;;;2.23;1.90;;;21.00;64.40;;;;;;5014701;28;20547;-87
2023/04/06 01:50:57;;;;;;;2.27;1.47;;;21.00;64.40;;;;;;5014358;28;20546;-87
2023/04/06 01:53:24;;;;;;;1.93;1.73;;;21.00;64.50;;;;;;5014048;28;20491;-87
2023/04/06 01:55:51;;;;;;;1.90;1.80;;;21.00;64.70;;;;;;5014423;28;20430;-87
2023/04/06 01:58:19;;;;;;;2.20;1.90;;;21.00;64.70;;;;;;5013770;28;20534;-87
2023/04/06 02:00:46;;;;;;;1.70;1.50;;;21.00;64.40;;;;;;5014394;28;20463;-87
2023/04/06 02:03:14;;;;;;;1.93;1.70;;;21.00;64.50;;;;;;5014110;28;20514;-87
2023/04/06 02:05:41;;;;;;;2.10;1.90;;;21.00;64.50;;;;;;5014272;28;20447;-87
2023/04/06 02:08:08;;;;;;;2.50;2.30;;;21.00;64.20;;;;;;5014286;28;20566;-87
2023/04/06 02:10:36;;;;;;;2.27;2.07;;;20.90;64.20;;;;;;5014190;28;20479;-87
2023/04/06 02:13:02;;;;;;;2.23;2.03;;;20.90;64.20;;;;;;5014340;28;20973;-87
2023/04/06 02:15:31;;;;;;;2.20;2.00;;;20.90;64.20;;;;;;5006289;28;20506;-87
2023/04/06 02:17:58;;;;;;;2.20;1.87;;;20.90;64.20;;;;;;5014000;28;20917;-87
2023/04/06 02:20:25;;;;;;;2.60;2.30;;;21.00;64.30;;;;;;5014191;28;20497;-87
2023/04/06 02:22:52;;;;;;;2.13;1.93;;;20.90;64.30;;;;;;5013790;28;20543;-87
2023/04/06 02:25:19;;;;;;;2.50;2.30;;;20.90;64.00;;;;;;5014037;28;20535;-87
2023/04/06 02:27:46;;;;;;;2.13;2.00;;;20.90;64.20;;;;;;5013771;28;20621;-87
2023/04/06 02:30:13;;;;;;;2.60;2.40;;;20.90;64.00;;;;;;5013812;28;20497;-87
2023/04/06 02:32:41;;;;;;;2.40;2.20;;;20.90;64.20;;;;;;5013669;28;20542;-87
2023/04/06 02:35:09;;;;;;;2.40;2.20;;;20.90;63.80;;;;;;5014005;28;20859;-87
2023/04/06 02:37:36;;;;;;;2.40;2.20;;;20.90;64.10;;;;;;5013999;28;20439;-87
2023/04/06 02:40:03;;;;;;;2.20;2.00;;;20.90;64.10;;;;;;5013619;28;20442;-87
2023/04/06 02:42:30;;;;;;;2.30;2.10;;;20.90;64.10;;;;;;5013776;28;20479;-87
2023/04/06 02:44:57;;;;;;;2.17;2.07;;;20.90;64.20;;;;;;5013551;28;20949;-87
2023/04/06 02:47:23;;;;;;;2.80;2.30;;;20.90;64.20;;;;;;5013909;28;20522;-87
2023/04/06 02:49:52;;;;;;;2.33;2.13;;;20.90;63.90;;;;;;5013938;28;20451;-87
2023/04/06 02:52:19;;;;;;;3.57;2.47;;;20.90;63.90;;;;;;5013269;28;20526;-87
2023/04/06 02:54:45;;;;;;;2.13;1.93;;;20.80;63.90;;;;;;5013825;28;20451;-87
2023/04/06 02:57:12;;;;;;;2.27;2.07;;;20.80;63.90;;;;;;5013603;28;20466;-87
2023/04/06 02:59:39;;;;;;;2.40;2.20;;;20.80;63.80;;;;;;5013773;28;20439;-87
2023/04/06 03:02:06;;;;;;;2.47;2.27;;;20.80;64.00;;;;;;5013712;28;20476;-87
2023/04/06 03:04:33;;;;;;;2.53;2.33;;;20.80;63.90;;;;;;5013790;28;20453;-87
2023/04/06 03:07:01;;;;;;;2.83;2.40;;;20.80;64.10;;;;;;5013612;28;20491;-87
2023/04/06 03:09:29;;;;;;;2.33;2.13;;;20.80;64.00;;;;;;5016008;28;20478;-87
2023/04/06 03:11:56;;;;;;;2.20;2.10;;;20.80;63.80;;;;;;5017120;28;20425;-87
2023/04/06 03:14:23;;;;;;;2.43;2.23;;;20.80;63.90;;;;;;5017547;28;20475;-87
2023/04/06 03:16:50;;;;;;;2.30;2.10;;;20.80;63.80;;;;;;5017472;28;20532;-87
2023/04/06 03:19:17;;;;;;;2.93;2.73;;;20.80;63.80;;;;;;5017212;28;20443;-87
2023/04/06 03:21:43;;;;;;;2.80;2.60;;;20.80;63.80;;;;;;5017148;28;20486;-87
2023/04/06 03:24:12;;;;;;;2.27;2.07;;;20.80;63.80;;;;;;5017397;28;20568;-87
2023/04/06 03:26:39;;;;;;;2.77;2.27;;;20.80;63.90;;;;;;5017082;28;20482;-87
2023/04/06 03:29:06;;;;;;;3.00;2.20;;;20.80;63.70;;;;;;5017521;28;20530;-87
2023/04/06 03:31:33;;;;;;;2.97;2.67;;;20.80;63.70;;;;;;5016997;28;20984;-87
2023/04/06 03:34:00;;;;;;;2.90;2.70;;;20.80;63.90;;;;;;5017107;28;20481;-87
2023/04/06 03:36:27;;;;;;;2.40;2.20;;;20.80;63.80;;;;;;5017202;28;20846;-87
2023/04/06 03:38:54;;;;;;;2.90;2.60;;;20.80;63.80;;;;;;5017249;28;20531;-87
2023/04/06 03:41:22;;;;;;;2.30;2.10;;;20.80;63.80;;;;;;5016731;28;20447;-87
2023/04/06 03:43:49;;;;;;;2.50;2.30;;;20.70;64.60;;;;;;5017001;28;20435;-87
2023/04/06 03:46:16;;;;;;;2.53;2.33;;;20.70;64.50;;;;;;5016868;28;20522;-87
2023/04/06 03:48:43;;;;;;;2.43;2.20;;;20.70;63.60;;;;;;5016943;28;20640;-87
2023/04/06 03:51:10;;;;;;;2.50;2.30;;;20.70;63.50;;;;;;5016863;28;20506;-87
2023/04/06 03:53:37;;;;;;;3.13;2.60;;;20.80;63.80;;;;;;5016715;28;20513;-87
2023/04/06 03:56:05;;;;;;;2.10;2.00;;;20.70;63.60;;;;;;5016864;28;20434;-87
2023/04/06 03:58:33;;;;;;;2.33;2.13;;;20.70;63.50;;;;;;5016834;28;20494;-87
2023/04/06 04:01:00;;;;;;;2.60;2.40;;;20.70;63.70;;;;;;5016551;28;20482;-87
2023/04/06 04:03:27;;;;;;;2.70;2.50;;;20.70;63.70;;;;;;5016549;28;20904;-87
2023/04/06 04:05:55;;;;;;;2.63;2.43;;;20.70;63.60;;;;;;5016511;28;20443;-87
2023/04/06 04:08:22;;;;;;;2.30;2.20;;;20.70;63.60;;;;;;5016674;28;20497;-87
2023/04/06 04:10:49;;;;;;;2.63;2.43;;;20.70;63.70;;;;;;5016266;28;20450;-87
2023/04/06 04:13:15;;;;;;;2.50;2.30;;;20.70;63.70;;;;;;5016594;28;20439;-87
2023/04/06 04:15:44;;;;;;;2.53;2.33;;;20.70;63.70;;;;;;5016447;28;20533;-87
2023/04/06 04:18:11;;;;;;;2.80;2.60;;;20.70;63.70;;;;;;5016225;28;20497;-87
2023/04/06 04:20:38;;;;;;;3.63;2.47;;;20.60;63.60;;;;;;5015337;28;20941;-86
2023/04/06 04:23:04;;;;;;;2.53;2.33;;;20.70;63.80;;;;;;5015901;28;20510;-87
2023/04/06 04:25:31;;;;;;;3.00;2.63;;;20.60;63.80;;;;;;5016020;28;20447;-87
2023/04/06 04:27:58;;;;;;;2.50;2.30;;;20.60;63.80;;;;;;5016164;28;20514;-87
2023/04/06 04:30:25;;;;;;;2.50;2.30;;;20.60;63.80;;;;;;5015971;28;20439;-86
2023/04/06 04:32:53;;;;;;;2.40;2.20;;;20.60;63.70;;;;;;5015993;28;21067;-86
2023/04/06 04:35:20;;;;;;;3.23;2.43;;;20.60;63.70;;;;;;5015716;28;20467;-86
2023/04/06 04:37:47;;;;;;;3.03;2.73;;;20.60;63.60;;;;;;5015853;28;20470;-86
2023/04/06 04:40:15;;;;;;;2.50;2.30;;;20.60;63.50;;;;;;5015812;28;20567;-86
2023/04/06 04:42:42;;;;;;;2.80;2.53;;;20.60;63.70;;;;;;5015688;28;20471;-87
2023/04/06 04:45:09;;;;;;;3.40;2.57;;;20.60;63.70;;;;;;5015566;28;20518;-86
2023/04/06 04:47:36;;;;;;;2.40;2.20;;;20.60;63.70;;;;;;5015652;28;20958;-86
2023/04/06 04:50:05;;;;;;;2.70;2.50;;;20.60;63.70;;;;;;5015393;28;20475;-87
2023/04/06 04:52:32;;;;;;;2.83;2.53;;;20.60;63.80;;;;;;5015367;28;20494;-87
2023/04/06 04:54:59;;;;;;;3.00;2.50;;;20.60;63.60;;;;;;5015788;28;20443;-86
2023/04/06 04:57:25;;;;;;;2.63;2.43;;;20.60;63.70;;;;;;5015528;28;21024;-87
2023/04/06 04:59:52;;;;;;;2.20;2.00;;;20.60;63.70;;;;;;5015311;28;20996;-86
2023/04/06 05:02:19;;;;;;;4.20;2.30;;;20.50;63.70;;;;;;5015156;28;20562;-87
2023/04/06 05:04:46;;;;;;;2.73;2.53;;;20.50;63.70;;;;;;5015658;28;20552;-86
2023/04/06 05:07:15;;;;;;;2.40;2.20;;;20.60;63.90;;;;;;5015362;28;20570;-87
2023/04/06 05:09:42;;;;;;;2.40;2.20;;;20.60;63.70;;;;;;5015594;28;20534;-86
2023/04/06 05:12:10;;;;;;;2.83;2.53;;;20.50;63.80;;;;;;5015464;28;20482;-86
2023/04/06 05:14:37;;;;;;;3.00;2.80;;;20.50;63.70;;;;;;5015288;28;20446;-86
2023/04/06 05:17:03;;;;;;;2.50;2.30;;;20.50;63.70;;;;;;5015233;28;20538;-87
2023/04/06 05:19:31;;;;;;;2.60;2.40;;;20.50;63.70;;;;;;5015420;28;20853;-86
2023/04/06 05:21:58;;;;;;;2.90;2.70;;;20.50;63.70;;;;;;5015511;28;20458;-86
2023/04/06 05:24:26;;;;;;;2.50;2.30;;;20.50;63.70;;;;;;5014992;28;20498;-87
2023/04/06 05:26:53;;;;;;;2.57;2.37;;;20.50;63.70;;;;;;5015149;28;20575;-87
2023/04/06 05:29:21;;;;;;;3.00;2.80;;;20.50;64.50;;;;;;5015185;28;20867;-89
2023/04/06 05:31:47;;;;;;;3.80;3.03;;;20.50;63.60;;;;;;5013975;28;20439;-87
2023/04/06 05:34:15;;;;;;;2.27;2.07;;;20.50;63.80;;;;;;5014690;28;20475;-87
2023/04/06 05:36:41;;;;;;;2.70;2.50;;;20.50;63.70;;;;;;5014636;28;20504;-87
2023/04/06 05:39:08;;;;;;;2.17;2.07;;;20.50;63.80;;;;;;5014272;28;20501;-87
2023/04/06 05:41:37;;;;;;;2.80;2.60;;;20.50;63.90;;;;;;5014221;28;20478;-87
2023/04/06 05:44:03;;;;;;;2.63;2.43;;;20.50;63.70;;;;;;5011523;28;20534;-86
2023/04/06 05:46:30;;;;;;;2.70;2.50;;;20.50;63.60;;;;;;5014076;28;20471;-86
2023/04/06 05:48:57;;;;;;;2.90;2.70;;;20.50;63.90;;;;;;5014028;28;20647;-86
2023/04/06 05:51:24;;;;;;;3.40;3.10;;;20.50;64.00;;;;;;5013155;28;20455;-86
2023/04/06 05:53:51;;;;;;;2.40;2.20;;;20.50;64.00;;;;;;5012717;28;20461;-86
2023/04/06 05:56:18;;;;;;;2.63;2.43;;;20.50;63.90;;;;;;5012531;28;20455;-86
2023/04/06 05:58:47;;;;;;;3.20;2.87;;;20.50;64.00;;;;;;5012500;28;20543;-86
2023/04/06 06:01:14;;;;;;;2.80;2.60;;;20.50;64.00;;;;;;5012854;28;20445;-87
2023/04/06 06:03:41;;;;;;;2.60;2.40;;;20.50;64.10;;;;;;5014045;28;20475;-87
2023/04/06 06:06:08;;;;;;;2.40;2.20;;;20.50;64.10;;;;;;5014267;28;20988;-89
2023/04/06 06:08:34;;;;;;;2.47;2.27;;;20.50;64.30;;;;;;5014263;28;20514;-86
2023/04/06 06:11:03;;;;;;;2.47;2.27;;;20.50;63.90;;;;;;5014100;28;20869;-87
2023/04/06 06:13:30;;;;;;;3.47;2.90;;;20.50;64.50;;;;;;5014234;28;21017;-87
2023/04/06 06:15:58;;;;;;;2.70;2.50;;;20.50;64.40;;;;;;5014583;28;20478;-87
2023/04/06 06:18:25;;;;;;;2.87;2.67;;;20.50;64.40;;;;;;5014087;28;20530;-87
2023/04/06 06:20:52;;;;;;;2.50;2.30;;;20.50;64.80;;;;;;5014096;28;20447;-87
2023/04/06 06:23:19;;;;;;;3.33;2.70;;;20.50;64.60;;;;;;5014012;28;20491;-86
2023/04/06 06:25:46;;;;;;;2.27;2.07;;;20.50;65.00;;;;;;5014206;28;20985;-86
2023/04/06 06:28:12;;;;;;;3.00;2.70;;;20.50;64.90;;;;;;5013998;28;20989;-87
2023/04/06 06:30:39;;;;;;;3.03;2.50;;;20.50;64.90;;;;;;5013851;28;20478;-87
2023/04/06 06:33:08;;;;;;;2.63;2.43;;;20.50;64.90;;;;;;5013834;28;20938;-86
2023/04/06 06:35:35;;;;;;;4.00;2.83;;;20.60;65.10;;;;;;5013986;28;20478;-86
2023/04/06 06:38:01;;;;;;;3.27;2.97;;;20.60;65.30;;;;;;5014027;28;20458;-87
2023/04/06 06:40:28;;;;;;;2.83;2.63;;;20.60;65.40;;;;;;5013822;28;20879;-87
2023/04/06 06:42:55;;;;;;;4.43;2.53;;;20.60;65.20;;;;;;5013649;28;20443;-86
2023/04/06 06:45:22;;;;;;;2.30;2.10;;;20.60;64.70;;;;;;5013817;28;20530;-89
2023/04/06 06:47:49;;;;;;;4.13;2.30;;;20.60;65.40;;;;;;5013806;28;20521;-88
2023/04/06 06:50:17;;;;;;;3.03;2.83;;;20.60;64.70;;;;;;5013645;28;20482;-89
2023/04/06 06:52:44;;;;;;;2.37;2.17;;;20.60;64.60;;;;;;5013552;28;20520;-89
2023/04/06 06:55:12;;;;;;;4.37;2.63;;;20.60;64.00;;;;;;5013491;28;20529;-89
2023/04/06 06:57:39;;;;;;;3.23;2.67;;;20.60;64.50;;;;;;5013697;28;20471;-87
2023/04/06 07:00:07;;;;;;;3.03;2.80;;;20.60;64.10;;;;;;5015493;28;20447;-84
2023/04/06 07:02:36;;;;;;;2.83;2.63;;;20.70;64.50;;;;;;5014437;28;20475;-85
2023/04/06 07:05:04;;;;;;;2.57;2.33;;;20.70;64.50;;;;;;5014433;28;20443;-86
2023/04/06 07:07:33;;;;;;;2.37;2.17;;;20.50;64.50;;;;;;5014574;28;20814;-85
2023/04/06 07:10:00;;;;;;;4.80;2.03;;;20.70;64.90;;;;;;5013525;28;20475;-85
2023/04/06 07:12:28;;;;;;;2.40;2.20;;;20.70;64.70;;;;;;5017442;28;20956;-85
2023/04/06 07:14:55;;;;;;;3.70;2.23;;;20.70;64.90;;;;;;5017567;28;20501;-85
2023/04/06 07:17:22;;;;;;;3.67;2.20;;;20.70;65.00;;;;;;5015389;28;20510;-84
2023/04/06 07:19:50;;;;;;;2.53;2.33;;;20.70;64.90;;;;;;5016318;28;20505;-84
2023/04/06 07:22:17;;;;;;;2.97;2.00;;;20.70;64.30;;;;;;5016333;28;20443;-84
2023/04/06 07:24:45;;;;;;;3.93;2.30;;;20.70;64.40;;;;;;5015281;28;20458;-84
2023/04/06 07:27:13;;;;;;;2.93;2.23;;;20.80;64.70;;;;;;5015030;28;20450;-84
2023/04/06 07:29:40;;;;;;;3.00;2.17;;;20.80;64.70;;;;;;5014626;28;20545;-84
2023/04/06 07:32:07;;;;;;;3.10;2.10;;;20.80;64.70;;;;;;5014649;28;20451;-83
2023/04/06 07:34:34;;;;;;;2.60;2.37;;;20.80;63.80;;;;;;5015090;28;20466;-83
2023/04/06 07:37:02;;;;;;;5.13;3.90;;;20.80;64.60;;;;;;5015211;28;20455;-84
2023/04/06 07:39:30;;;;;;;4.40;3.07;;;20.80;58.60;;;;;;5014700;28;20451;-83
2023/04/06 07:41:58;;;;;;;3.50;2.87;;;20.70;59.60;;;;;;5014719;28;20445;-83
2023/04/06 07:44:25;;;;;;;4.07;2.70;;;20.80;62.10;;;;;;5014468;28;20829;-83
2023/04/06 07:46:52;;;;;;;5.13;2.70;;;20.80;63.60;;;;;;5013700;28;20933;-84
2023/04/06 07:49:20;;;;;;;4.13;2.50;;;20.80;63.90;;;;;;5013062;28;20518;-86
2023/04/06 07:51:47;;;;;;;5.20;2.80;;;20.80;64.30;;;;;;5013067;28;20458;-83
2023/04/06 07:54:14;;;;;;;4.03;2.90;;;20.80;64.40;;;;;;5013015;28;20554;-84
2023/04/06 07:59:28;;;;;;;3.77;2.90;;;20.90;63.30;;;;;;5023679;28;20945;-85
2023/04/06 08:01:55;;;;;;;3.10;2.80;;;20.90;63.00;;;;;;5017230;28;20977;-85
2023/04/06 08:04:22;;;;;;;5.97;2.30;;;20.90;64.40;;;;;;5016882;28;20447;-84
2023/04/06 08:06:49;;;;;;;5.90;2.67;;;20.90;64.80;;;;;;5016825;28;20459;-84
2023/04/06 08:09:17;;;;;;;7.00;3.70;;;20.90;64.90;;;;;;5016562;28;20572;-85
2023/04/06 08:11:44;;;;;;;3.17;2.87;;;20.90;64.90;;;;;;5016462;28;20449;-85
2023/04/06 08:14:11;;;;;;;3.13;2.67;;;21.00;65.10;;;;;;5016647;28;20807;-85
2023/04/06 08:16:40;;;;;;;4.87;4.47;;;21.00;65.10;;;;;;5016343;28;20458;-87
2023/04/06 08:19:09;;;;;;;6.73;4.40;;;21.00;54.80;;;;;;5016394;28;20950;-84
2023/04/06 08:21:36;;;;;;;5.07;3.87;;;20.90;56.50;;;;;;5016210;28;20523;-85
2023/04/06 08:24:03;;;;;;;5.90;3.43;;;20.90;59.90;;;;;;5016229;28;20517;-84
2023/04/06 08:26:30;;;;;;;3.50;3.20;;;20.90;61.00;;;;;;5016202;28;20501;-85
2023/04/06 08:28:57;;;;;;;5.53;2.70;;;21.00;61.30;;;;;;5015903;28;20495;-85
2023/04/06 08:31:24;;;;;;;4.70;2.83;;;21.00;61.50;;;;;;5016035;28;20455;-85
2023/04/06 08:33:52;;;;;;;5.37;2.77;;;21.10;61.90;;;;;;5016044;28;20447;-84
2023/04/06 08:36:22;;;;;;;2.90;2.60;;;21.10;61.90;;;;;;5016184;28;20474;-85
2023/04/06 08:38:50;;;;;;;5.23;2.67;;;21.20;62.20;;;;;;5015878;28;20444;-84
2023/04/06 08:41:17;;;;;;;3.00;2.60;;;21.30;62.30;;;;;;5016178;28;20444;-85
2023/04/06 08:43:47;;;;;;;2.90;2.23;;;21.30;62.50;;;;;;5016468;28;20443;-85
2023/04/06 08:46:15;;;;;;;4.83;2.53;;;21.30;62.70;;;;;;5015805;28;20470;-85
2023/04/06 08:48:43;;;;;;;3.60;2.40;;;21.40;62.90;;;;;;5015657;28;20510;-85
2023/04/06 08:51:12;;;;;;;2.60;2.40;;;21.40;62.90;;;;;;5015543;28;20478;-85
2023/04/06 08:53:40;;;;;;;5.30;2.30;;;21.50;63.00;;;;;;5015527;28;20459;-85
2023/04/06 08:56:07;;;;;;;3.50;2.27;;;21.50;63.10;;;;;;5015611;28;20451;-85
2023/04/06 08:58:38;;;;;;;4.50;2.30;;;21.60;63.20;;;;;;5015405;28;20443;-85
2023/04/06 09:01:08;;;;;;;4.40;2.30;;;21.60;63.20;;;;;;5015362;28;20444;-85
2023/04/06 09:03:40;;;;;;;5.47;2.50;;;21.60;63.20;;;;;;5015458;28;20600;-84
2023/04/06 09:06:08;;;;;;;2.50;2.07;;;21.60;63.40;;;;;;5015315;28;20519;-84
2023/04/06 09:08:38;;;;;;;4.60;2.67;;;21.70;63.30;;;;;;5015585;28;20986;-84
2023/04/06 09:11:05;;;;;;;3.73;2.00;;;21.70;63.50;;;;;;5015395;28;21033;-85
2023/04/06 09:13:33;;;;;;;2.40;2.17;;;21.70;63.50;;;;;;5015097;28;20524;-87
2023/04/06 09:16:01;;;;;;;3.30;2.80;;;21.70;63.50;;;;;;5015400;28;20862;-87
2023/04/06 09:18:36;;;;;;;2.63;2.20;;;21.70;63.60;;;;;;5015283;28;20852;-87
2023/04/06 09:21:05;;;;;;;4.30;2.40;;;21.70;63.60;;;;;;5015296;28;20501;-87
2023/04/06 09:23:32;;;;;;;3.93;3.40;;;21.70;63.70;;;;;;5015131;28;20550;-88
2023/04/06 09:26:15;;;;;;;9.97;3.10;;;21.70;59.50;;;;;;5014773;28;20482;-89
2023/04/06 09:28:45;;;;;;;2.73;2.40;;;21.60;58.40;;;;;;5015345;28;20546;-88
2023/04/06 09:31:12;;;;;;;3.63;2.53;;;21.50;58.20;;;;;;5015100;28;20443;-86
2023/04/06 09:33:40;;;;;;;6.40;3.43;;;21.50;59.80;;;;;;5014743;28;20522;-89
2023/04/06 09:36:09;;;;;;;5.43;2.40;;;21.50;61.50;;;;;;5014115;28;20455;-88
2023/04/06 17:41:03;;;;;;;2.90;1.50;;;21.40;67.10;;;;;;4953790;29;20510;-87
2023/04/06 17:46:20;;;;;;;2.90;1.93;;;21.40;64.70;;;;;;5617062;23;20485;-84
2023/04/06 17:48:47;;;;;;;1.63;1.43;;;21.40;65.30;;;;;;4956367;29;21031;-84
2023/04/06 17:51:17;;;;;;;3.87;1.70;;;21.50;65.50;;;;;;4956515;29;20771;-85
2023/04/06 17:53:44;;;;;;;3.30;1.67;;;21.40;65.90;;;;;;4956296;29;20886;-86
2023/04/06 17:56:11;;;;;;;1.97;1.20;;;21.40;66.60;;;;;;4956529;29;20454;-83
2023/04/06 17:58:38;;;;;;;1.80;1.43;;;21.40;66.90;;;;;;4955360;29;20461;-83
2023/04/06 18:01:09;;;;;;;6.13;1.67;;;21.40;67.10;;;;;;4955498;29;20452;-84
2023/04/06 18:03:38;;;;;;;5.33;1.50;;;21.40;67.20;;;;;;4955463;29;20519;-83
2023/04/06 18:06:12;;;;;;;2.47;1.27;;;21.50;67.50;;;;;;4955569;29;20975;-83
2023/04/06 18:08:39;;;;;;;1.80;1.30;;;21.40;67.40;;;;;;4956933;29;20465;-84
2023/04/06 18:11:06;;;;;;;1.40;1.20;;;21.40;67.60;;;;;;4956584;29;20450;-84
2023/04/06 18:13:33;;;;;;;2.53;1.87;;;21.40;67.70;;;;;;4959117;29;20446;-84
2023/04/06 18:16:01;;;;;;;5.43;1.70;;;21.40;67.50;;;;;;4956190;29;20450;-85
2023/04/06 18:18:28;;;;;;;6.33;1.60;;;21.40;67.70;;;;;;4955944;29;20446;-85
2023/04/06 18:20:56;;;;;;;4.80;2.00;;;21.40;68.00;;;;;;4956300;29;20562;-87
2023/04/06 18:23:23;;;;;;;3.97;1.80;;;21.40;67.80;;;;;;4960443;29;20450;-85
2023/04/06 18:25:49;;;;;;;3.47;1.20;;;21.40;67.90;;;;;;4961494;29;20448;-86
2023/04/06 18:28:16;;;;;;;4.53;1.87;;;21.40;67.90;;;;;;4964766;29;20442;-86
2023/04/06 18:30:43;;;;;;;2.40;1.33;;;21.40;67.80;;;;;;4960831;29;20493;-86
2023/04/06 18:33:10;;;;;;;4.53;1.80;;;21.40;67.40;;;;;;4956259;29;20468;-84
2023/04/06 18:35:38;;;;;;;9.43;2.00;;;21.40;67.40;;;;;;4956090;29;20449;-84
2023/04/06 18:38:06;;;;;;;4.60;1.60;;;21.40;67.40;;;;;;4955791;29;20528;-86
2023/04/06 18:40:35;;;;;;;3.37;1.93;;;21.40;67.20;;;;;;4955269;28;20453;-87
2023/04/06 18:43:02;;;;;;;3.47;1.60;;;21.40;67.30;;;;;;4955515;29;20442;-88
2023/04/06 18:45:34;;;;;;;3.70;1.60;;;21.50;67.40;;;;;;4955913;29;20517;-84
2023/04/06 18:48:00;;;;;;;2.20;1.70;;;21.40;67.30;;;;;;4955767;29;20482;-86
2023/04/06 18:50:27;;;;;;;4.77;2.03;;;21.40;67.30;;;;;;4955666;29;20996;-88
2023/04/06 18:52:54;;;;;;;1.80;1.27;;;21.40;67.10;;;;;;4955392;29;20937;-87
2023/04/06 18:55:23;;;;;;;2.13;1.50;;;21.40;67.60;;;;;;4955781;29;20457;-86
2023/04/06 18:57:49;;;;;;;2.03;1.27;;;21.40;67.10;;;;;;4955479;29;20949;-86
2023/04/06 19:00:17;;;;;;;2.33;2.00;;;21.40;66.90;;;;;;4955680;29;20811;-89
2023/04/06 19:02:43;;;;;;;4.33;1.23;;;21.40;66.80;;;;;;4955507;29;20448;-87
2023/04/06 19:05:11;;;;;;;3.03;1.50;;;21.40;67.10;;;;;;4955429;29;20438;-86
2023/04/06 19:07:38;;;;;;;9.50;1.87;;;21.40;67.50;;;;;;4955164;29;20474;-86
2023/04/06 19:10:06;;;;;;;3.77;2.07;;;21.50;68.00;;;;;;4955243;29;21030;-87
2023/04/06 19:12:35;;;;;;;2.13;1.50;;;21.40;67.30;;;;;;4955649;29;20454;-85
2023/04/06 19:15:05;;;;;;;4.17;1.43;;;21.30;67.60;;;;;;4954974;29;20818;-84
2023/04/06 19:17:31;;;;;;;1.80;1.20;;;21.50;67.20;;;;;;4955534;29;20449;-84
2023/04/06 19:19:59;;;;;;;3.17;1.40;;;21.50;67.00;;;;;;4955000;29;20451;-82
2023/04/06 19:22:26;;;;;;;4.53;1.30;;;21.50;67.50;;;;;;4955189;29;20520;-83
2023/04/06 19:24:53;;;;;;;5.57;1.30;;;21.50;67.60;;;;;;4955037;29;20442;-82
2023/04/06 19:27:20;;;;;;;1.43;1.33;;;21.50;67.60;;;;;;4955002;29;20450;-83
2023/04/06 19:29:48;;;;;;;2.40;1.40;;;21.50;67.60;;;;;;4955105;29;20486;-83
2023/04/06 19:32:15;;;;;;;1.90;1.33;;;21.50;67.80;;;;;;4954911;29;20442;-83
2023/04/06 19:34:41;;;;;;;4.00;1.50;;;21.50;67.60;;;;;;4955013;29;20457;-83
2023/04/06 19:37:08;;;;;;;3.83;1.30;;;21.50;67.70;;;;;;4955121;29;20470;-83
2023/04/06 19:39:37;;;;;;;1.50;1.30;;;21.50;67.60;;;;;;4955069;29;20943;-83
2023/04/06 19:42:04;;;;;;;3.20;1.27;;;21.50;67.60;;;;;;4955020;29;20950;-84
2023/04/06 19:44:31;;;;;;;3.67;1.30;;;21.50;67.60;;;;;;4955021;29;20450;-83
2023/04/06 19:46:59;;;;;;;2.17;1.30;;;21.50;67.60;;;;;;4954793;29;20484;-82
2023/04/06 19:49:27;;;;;;;3.20;1.57;;;21.50;67.70;;;;;;4954658;29;20442;-82
2023/04/06 19:51:54;;;;;;;2.50;1.30;;;21.40;67.60;;;;;;4957796;28;20449;-85
2023/04/06 19:54:21;;;;;;;2.20;1.33;;;21.50;67.70;;;;;;4958245;29;20450;-83
2023/04/06 19:56:48;;;;;;;3.77;1.40;;;21.50;67.70;;;;;;4958437;29;20460;-82
2023/04/06 19:59:16;;;;;;;1.67;1.23;;;21.50;67.90;;;;;;4958403;29;20450;-82
2023/04/06 20:01:43;;;;;;;1.47;1.33;;;21.50;67.90;;;;;;4958533;29;20450;-83
2023/04/06 20:04:12;;;;;;;3.73;1.53;;;21.50;67.70;;;;;;4958022;29;20454;-82
2023/04/06 20:06:39;;;;;;;2.30;1.17;;;21.50;67.80;;;;;;4958086;29;20470;-83
2023/04/06 20:09:05;;;;;;;6.37;1.47;;;21.40;67.70;;;;;;4958144;29;20854;-82
2023/04/06 20:11:33;;;;;;;2.90;1.20;;;21.40;67.80;;;;;;4957996;29;20568;-83
2023/04/06 20:14:00;;;;;;;1.27;1.10;;;21.40;67.80;;;;;;4958067;29;20448;-83
2023/04/06 20:16:27;;;;;;;1.60;1.27;;;21.40;67.70;;;;;;4958011;29;20453;-83
2023/04/06 20:18:54;;;;;;;1.80;1.07;;;21.50;67.60;;;;;;4958290;29;20463;-86
2023/04/06 20:21:22;;;;;;;1.93;1.30;;;21.40;67.70;;;;;;4958145;29;20473;-85
2023/04/06 20:23:49;;;;;;;2.50;1.27;;;21.50;67.70;;;;;;4958030;29;20450;-84
2023/04/06 20:26:16;;;;;;;1.30;1.20;;;21.40;68.00;;;;;;4958029;29;20450;-85
2023/04/06 20:28:43;;;;;;;1.77;1.20;;;21.40;67.80;;;;;;4957715;29;20866;-87
2023/04/06 20:31:10;;;;;;;2.50;1.40;;;21.40;68.00;;;;;;4957612;29;20490;-88
2023/04/06 20:33:38;;;;;;;1.60;1.13;;;21.40;67.80;;;;;;4945126;29;20447;-84
2023/04/06 20:36:06;;;;;;;2.50;1.20;;;21.40;67.90;;;;;;4938782;29;20455;-87
2023/04/06 20:38:34;;;;;;;1.60;1.27;;;21.40;67.80;;;;;;4947606;29;20442;-85
2023/04/06 20:41:01;;;;;;;4.30;1.30;;;21.40;67.80;;;;;;4944842;29;20458;-84
2023/04/06 20:43:28;;;;;;;1.30;1.20;;;21.40;67.90;;;;;;4938774;29;20963;-86
2023/04/06 20:45:56;;;;;;;1.40;1.30;;;21.40;67.80;;;;;;4938514;29;20450;-84
2023/04/06 20:48:23;;;;;;;2.50;1.20;;;21.40;67.80;;;;;;4938315;29;20444;-88
2023/04/06 20:50:50;;;;;;;3.13;1.30;;;21.40;67.80;;;;;;4938473;29;20491;-85
2023/04/06 20:53:18;;;;;;;2.43;1.20;;;21.40;67.60;;;;;;4938464;29;20450;-87
2023/04/06 20:55:46;;;;;;;1.70;1.40;;;21.40;67.60;;;;;;4938277;29;20447;-84